Easterwood Field
KCLL : now visible

Airfield :











YOU CAN JOIN US ON...

 
LOGIN :

Register | Disclaimer

   EN    FR    IT 

 









Legend :    VFR   Marginal VFR   IFR   Intensive IFR   Very Intensive IFR
Visi :
Ceiling :
>= 8 km
>= 3000ft
5 to 8 km
1000 to 3000 ft
1500m to 5 km
500 to 1000 ft
800 to 1500m
200 to 500 ft
< 800m
< 200 ft
Symbols :   Thunderstorms  Fog  Heavy snow  Heavy precipitations  Wind > 20 kt






- Airport Elevation : 320 ft
- IATA code : CLL


KCLL - Easterwood Field

CURRENT METAR :
  • 300953Z AUTO 00000KT 10SM CLR 16/08 A3009 RMK AO2 SLP185 T01610078

EXPIRED METARs :
  • 300853Z AUTO 09003KT 10SM CLR 18/08 A3009 RMK AO2 SLP184 T01780078 58003
  • 300753Z AUTO 08007KT 10SM CLR 18/08 A3009 RMK AO2 SLP186 T01830078

TAF KCLL
Valid from the 30 at 06:00 until the 01 at 06:00 UTC


300520Z 3006/0106 07005KT P6SM SKC
FM301400 05009KT P6SM SKC
FM010000 08005KT P6SM SKC
KZHU FIR / North America



MET'MAP, your aeronautical weather chart ! - Copyright ORBIFLY December 2007 - Disclaimer

ORBIFLY MET'MAP TEAM :

Programming & Development : Alexandra Zaïnal
Original concept : Baudouin d'Aumeries
Technical & hardware support : Manuel Goepfert
Assistance : Marc-Olivier Méhu




SOURCES & CREDITS :

   NOAA       Earth
Advisory